Time;durP1;ratioP1;P1;durP2;ratioP2;P2;SDS_P1;SDS_P2;PMS_P1;PMS_P2;Temp;Humidity;BMP_temperature;BMP_pressure;BME280_temperature;BME280_humidity;BME280_pressure;Samples;Min_cycle;Max_cycle;Signal;HPM_P1;HPM_P2
2022/05/21 00:02:04;;;;;;;4.80;3.20;;;;;14.90;101368.00;;;;5020841;28;20581;-71
2022/05/21 00:04:50;;;;;;;5.43;3.40;;;;;14.90;101375.00;;;;5018523;28;20751;-70
2022/05/21 00:07:38;;;;;;;6.20;3.23;;;;;15.00;101365.00;;;;5026134;28;20232;-71
2022/05/21 00:10:27;;;;;;;8.03;4.03;;;;;14.90;101374.00;;;;5020891;28;20596;-70
2022/05/21 00:13:13;;;;;;;5.73;3.63;;;;;14.90;101370.00;;;;5023985;28;20344;-70
2022/05/21 00:16:00;;;;;;;6.43;3.30;;;;;15.00;101380.00;;;;5020969;28;20274;-69
2022/05/21 00:18:47;;;;;;;7.80;3.60;;;;;15.00;101377.00;;;;5025961;28;20233;-70
2022/05/21 00:21:33;;;;;;;6.63;3.90;;;;;14.90;101374.00;;;;5025926;28;20849;-70
2022/05/21 00:24:21;;;;;;;9.27;4.27;;;;;14.90;101379.00;;;;5025480;28;20228;-71
2022/05/21 00:27:08;;;;;;;11.33;4.97;;;;;14.90;101380.00;;;;5026088;28;20221;-70
2022/05/21 00:29:54;;;;;;;8.03;4.83;;;;;14.90;101380.00;;;;5018539;28;20936;-71
2022/05/21 00:32:41;;;;;;;10.10;5.23;;;;;14.90;101374.00;;;;5026344;28;20412;-70
2022/05/21 00:35:28;;;;;;;8.47;4.90;;;;;14.90;101378.00;;;;5025955;28;20241;-68
2022/05/21 00:38:14;;;;;;;9.20;5.90;;;;;14.80;101376.00;;;;5010434;28;20605;-71
2022/05/21 00:41:03;;;;;;;7.97;4.70;;;;;14.80;101382.00;;;;5009134;28;20237;-71
2022/05/21 00:43:51;;;;;;;10.33;5.60;;;;;14.90;101376.00;;;;5010676;28;20780;-69
2022/05/21 00:46:40;;;;;;;7.37;4.93;;;;;14.60;101373.00;;;;5010119;28;20716;-71
2022/05/21 00:49:28;;;;;;;7.40;5.37;;;;;14.50;101370.00;;;;5015621;28;20317;-71
2022/05/21 00:52:18;;;;;;;9.67;5.00;;;;;14.40;101355.00;;;;5011687;28;20231;-70
2022/05/21 00:55:11;;;;;;;10.20;5.83;;;;;14.20;101369.00;;;;5019343;28;20234;-70
2022/05/21 01:01:07;;;;;;;10.60;5.80;;;;;14.10;101372.00;;;;5019631;28;20230;-71
2022/05/21 01:03:54;;;;;;;12.03;5.80;;;;;14.00;101366.00;;;;5024004;28;20226;-69
2022/05/21 01:06:40;;;;;;;10.57;6.10;;;;;14.00;101369.00;;;;5025887;28;20249;-68
2022/05/21 01:09:27;;;;;;;11.57;5.60;;;;;14.00;101370.00;;;;5013627;28;20354;-69
2022/05/21 01:12:13;;;;;;;10.13;5.90;;;;;13.90;101365.00;;;;5000966;28;20288;-70
2022/05/21 01:15:04;;;;;;;9.17;5.53;;;;;13.80;101377.00;;;;5022562;28;20753;-71
2022/05/21 01:17:50;;;;;;;9.70;5.77;;;;;13.80;101375.00;;;;5025348;28;21011;-69
2022/05/21 01:20:39;;;;;;;10.70;6.07;;;;;13.60;101367.00;;;;5025333;28;20725;-70
2022/05/21 01:23:28;;;;;;;11.93;5.43;;;;;13.60;101371.00;;;;5006147;28;20743;-70
2022/05/21 01:26:17;;;;;;;10.07;6.17;;;;;13.50;101366.00;;;;5024553;28;20300;-70
2022/05/21 01:29:05;;;;;;;9.57;5.60;;;;;13.40;101366.00;;;;5018809;28;20718;-70
2022/05/21 01:31:53;;;;;;;9.50;5.30;;;;;13.40;101372.00;;;;5017286;28;20230;-70
2022/05/21 01:34:39;;;;;;;8.47;5.13;;;;;13.40;101366.00;;;;5024267;28;20229;-69
2022/05/21 01:37:26;;;;;;;9.20;5.00;;;;;13.40;101360.00;;;;5025647;28;20604;-69
2022/05/21 01:40:15;;;;;;;11.10;5.90;;;;;13.40;101378.00;;;;5020114;28;20299;-70
2022/05/21 01:46:06;;;;;;;11.93;5.57;;;;;13.50;101358.00;;;;5018573;28;20706;-68
2022/05/21 01:48:52;;;;;;;11.37;5.90;;;;;13.40;101357.00;;;;5025223;28;20229;-68
2022/05/21 01:51:39;;;;;;;9.67;5.43;;;;;13.40;101361.00;;;;5025360;28;20237;-70
2022/05/21 01:54:25;;;;;;;8.90;5.00;;;;;13.40;101358.00;;;;5025274;28;20229;-70
2022/05/21 01:57:13;;;;;;;14.70;5.40;;;;;13.40;101357.00;;;;5019483;28;20307;-70
2022/05/21 01:59:59;;;;;;;8.90;5.17;;;;;13.30;101350.00;;;;5025549;28;20303;-70
2022/05/21 02:02:45;;;;;;;9.50;5.43;;;;;13.30;101359.00;;;;5025187;28;20364;-69
2022/05/21 02:05:32;;;;;;;9.73;5.17;;;;;13.40;101346.00;;;;5024951;28;20368;-69
2022/05/21 02:08:19;;;;;;;11.33;5.27;;;;;13.50;101346.00;;;;5022577;28;20233;-70
2022/05/21 02:11:06;;;;;;;9.67;5.03;;;;;13.40;101345.00;;;;4999024;28;20284;-71
2022/05/21 02:13:53;;;;;;;10.00;5.07;;;;;13.50;101342.00;;;;5005548;28;20602;-71
2022/05/21 02:16:40;;;;;;;8.03;5.07;;;;;13.50;101341.00;;;;4999776;28;20310;-68
2022/05/21 02:19:26;;;;;;;8.17;4.70;;;;;13.60;101341.00;;;;5017688;28;20232;-69
2022/05/21 02:22:13;;;;;;;10.33;5.50;;;;;13.60;101334.00;;;;5024771;28;21058;-70
2022/05/21 02:24:59;;;;;;;8.27;5.30;;;;;13.70;101341.00;;;;5024747;28;20594;-69
2022/05/21 02:27:45;;;;;;;8.70;4.93;;;;;13.70;101343.00;;;;5012375;28;20792;-69
2022/05/21 02:30:33;;;;;;;8.37;4.70;;;;;13.90;101345.00;;;;5017243;28;20233;-67
2022/05/21 02:33:20;;;;;;;11.77;5.13;;;;;13.90;101332.00;;;;5022121;28;20357;-69
2022/05/21 02:36:07;;;;;;;8.13;4.70;;;;;13.90;101333.00;;;;5025278;28;20249;-71
2022/05/21 02:41:59;;;;;;;9.03;3.80;;;;;13.90;101333.00;;;;5024891;28;20237;-70
2022/05/21 02:44:45;;;;;;;7.20;4.40;;;;;13.90;101341.00;;;;5024723;28;20237;-69
2022/05/21 02:47:33;;;;;;;7.37;4.17;;;;;14.00;101331.00;;;;5028331;28;20241;-69
2022/05/21 02:50:22;;;;;;;9.20;4.50;;;;;14.00;101325.00;;;;5025598;28;20237;-69
2022/05/21 02:53:16;;;;;;;7.07;4.27;;;;;14.00;101328.00;;;;5021744;28;20230;-68
2022/05/21 02:56:07;;;;;;;11.53;4.73;;;;;14.10;101327.00;;;;5027941;28;20606;-70
2022/05/21 02:58:53;;;;;;;9.53;4.53;;;;;14.00;101329.00;;;;5028414;28;20829;-71
2022/05/21 03:01:39;;;;;;;8.30;4.40;;;;;14.20;101324.00;;;;5028008;28;20240;-71
2022/05/21 03:04:27;;;;;;;10.47;4.40;;;;;14.10;101331.00;;;;5027465;28;20229;-71
2022/05/21 03:07:14;;;;;;;10.80;4.40;;;;;14.10;101330.00;;;;5022437;28;20714;-70
2022/05/21 03:13:09;;;;;;;9.50;4.87;;;;;14.00;101339.00;;;;5015391;28;20229;-66
2022/05/21 03:15:57;;;;;;;8.63;4.87;;;;;14.20;101341.00;;;;5011699;28;20273;-69
2022/05/21 03:18:43;;;;;;;9.80;5.80;;;;;14.20;101347.00;;;;5011198;28;20229;-67
2022/05/21 03:21:31;;;;;;;8.33;5.63;;;;;14.10;101345.00;;;;5029066;28;20241;-71
2022/05/21 03:24:17;;;;;;;8.63;5.47;;;;;14.10;101342.00;;;;5028014;28;20606;-67
2022/05/21 03:27:05;;;;;;;8.90;5.73;;;;;14.20;101352.00;;;;5020011;28;20237;-67
2022/05/21 03:29:52;;;;;;;8.17;5.10;;;;;14.10;101333.00;;;;5027865;28;20972;-69
2022/05/21 03:32:38;;;;;;;9.87;4.93;;;;;14.20;101331.00;;;;5027667;28;20233;-70
2022/05/21 03:35:26;;;;;;;13.87;4.90;;;;;14.20;101336.00;;;;5027958;28;20276;-69
2022/05/21 03:38:14;;;;;;;9.80;5.83;;;;;14.20;101346.00;;;;5021090;28;20317;-70
2022/05/21 03:41:01;;;;;;;9.00;5.30;;;;;14.30;101337.00;;;;5027424;28;20233;-70
2022/05/21 03:43:47;;;;;;;10.87;5.67;;;;;14.30;101333.00;;;;5018867;28;20240;-70
2022/05/21 03:46:38;;;;;;;9.03;5.23;;;;;14.20;101327.00;;;;5027419;28;20323;-68
2022/05/21 03:49:24;;;;;;;13.00;6.50;;;;;14.20;101331.00;;;;5022790;28;20229;-67
2022/05/21 03:52:10;;;;;;;11.23;5.57;;;;;14.10;101334.00;;;;5020571;28;20249;-69
2022/05/21 03:54:58;;;;;;;10.37;5.27;;;;;14.10;101330.00;;;;5026552;28;20240;-71
2022/05/21 03:57:44;;;;;;;9.27;5.90;;;;;14.20;101340.00;;;;5026815;28;20729;-68
2022/05/21 04:00:32;;;;;;;10.30;5.47;;;;;14.30;101336.00;;;;5027254;28;20262;-68
2022/05/21 04:03:19;;;;;;;7.50;5.10;;;;;14.20;101329.00;;;;5027075;28;20245;-68
2022/05/21 04:06:05;;;;;;;9.60;5.40;;;;;14.30;101330.00;;;;5019057;28;20229;-70
2022/05/21 04:08:52;;;;;;;9.17;4.70;;;;;14.20;101325.00;;;;5019717;28;20233;-69
2022/05/21 04:11:40;;;;;;;12.00;4.90;;;;;14.20;101338.00;;;;5000167;28;20727;-70
2022/05/21 04:14:28;;;;;;;11.40;5.00;;;;;14.40;101346.00;;;;4999255;28;20245;-69
2022/05/21 04:17:15;;;;;;;7.10;5.07;;;;;14.40;101341.00;;;;5020373;28;20230;-70
2022/05/21 04:20:01;;;;;;;10.33;5.43;;;;;14.40;101349.00;;;;5025598;28;20252;-69
2022/05/21 04:22:47;;;;;;;8.53;5.60;;;;;14.30;101348.00;;;;5024746;28;20976;-70
2022/05/21 04:25:34;;;;;;;11.27;5.50;;;;;14.30;101350.00;;;;5025071;28;20265;-68
2022/05/21 04:28:21;;;;;;;11.20;5.63;;;;;14.40;101344.00;;;;5020523;28;20715;-69
2022/05/21 04:31:07;;;;;;;8.83;5.30;;;;;14.40;101347.00;;;;5019431;28;20249;-70
2022/05/21 04:33:54;;;;;;;9.00;4.97;;;;;14.50;101351.00;;;;5026483;28;20252;-68
2022/05/21 04:36:41;;;;;;;12.43;5.60;;;;;14.40;101357.00;;;;5024934;28;20611;-70
2022/05/21 04:39:27;;;;;;;10.37;5.10;;;;;14.50;101348.00;;;;5024025;28;20249;-68
2022/05/21 04:42:13;;;;;;;8.67;4.93;;;;;14.40;101351.00;;;;5007770;28;20237;-70
2022/05/21 04:45:01;;;;;;;11.67;4.77;;;;;14.50;101352.00;;;;5023079;28;21623;-69
2022/05/21 04:47:47;;;;;;;8.77;4.50;;;;;14.50;101363.00;;;;5014054;28;20691;-70
2022/05/21 04:50:36;;;;;;;11.00;5.27;;;;;14.50;101359.00;;;;5017119;28;20642;-70
2022/05/21 04:53:22;;;;;;;6.97;4.53;;;;;14.50;101357.00;;;;5026277;28;20627;-68
2022/05/21 04:56:09;;;;;;;8.60;5.20;;;;;14.50;101368.00;;;;5026025;28;20248;-69
2022/05/21 04:59:15;;;;;;;9.00;5.27;;;;;14.40;101382.00;;;;5019432;28;20730;-69
2022/05/21 05:02:03;;;;;;;9.27;4.57;;;;;14.50;101369.00;;;;5025022;28;20237;-68
2022/05/21 05:04:49;;;;;;;11.40;4.40;;;;;14.60;101378.00;;;;5025852;28;20360;-69
2022/05/21 05:07:37;;;;;;;8.27;5.00;;;;;14.50;101384.00;;;;5026237;28;20246;-69
2022/05/21 05:10:24;;;;;;;12.97;5.13;;;;;14.50;101385.00;;;;5010213;28;20304;-68
2022/05/21 05:13:10;;;;;;;8.40;4.03;;;;;14.70;101377.00;;;;4998025;28;20228;-66
2022/05/21 05:15:57;;;;;;;10.93;5.33;;;;;14.70;101389.00;;;;5023269;28;20716;-69
2022/05/21 05:18:44;;;;;;;7.00;5.03;;;;;14.60;101402.00;;;;5021589;28;20976;-69
2022/05/21 05:21:31;;;;;;;8.43;4.90;;;;;14.70;101392.00;;;;5014189;28;20237;-70
2022/05/21 05:24:17;;;;;;;14.90;5.47;;;;;14.80;101393.00;;;;5020345;28;20882;-69
2022/05/21 05:27:04;;;;;;;9.53;4.77;;;;;14.80;101398.00;;;;5014422;28;20726;-69
2022/05/21 05:29:50;;;;;;;10.27;5.17;;;;;14.60;101401.00;;;;5025471;28;20280;-69
2022/05/21 05:32:36;;;;;;;11.10;5.17;;;;;14.70;101410.00;;;;5025517;28;20241;-69
2022/05/21 05:35:24;;;;;;;12.10;4.70;;;;;14.80;101402.00;;;;5019430;28;20237;-69
2022/05/21 05:38:13;;;;;;;10.60;5.53;;;;;14.90;101408.00;;;;5017606;28;20229;-68
2022/05/21 05:40:59;;;;;;;9.77;5.00;;;;;15.10;101371.00;;;;5025258;28;20348;-69
2022/05/21 05:43:45;;;;;;;10.27;5.10;;;;;15.00;101402.00;;;;5025053;28;20238;-69
2022/05/21 05:46:32;;;;;;;10.93;5.30;;;;;15.00;101402.00;;;;5019369;28;20242;-69
2022/05/21 05:49:18;;;;;;;8.23;4.40;;;;;14.90;101404.00;;;;5011773;28;20240;-69
2022/05/21 05:52:08;;;;;;;9.53;5.10;;;;;14.90;101402.00;;;;5005228;28;20233;-69
2022/05/21 05:54:55;;;;;;;8.67;4.47;;;;;14.90;101400.00;;;;4996712;28;20238;-69
2022/05/21 05:57:41;;;;;;;12.57;5.40;;;;;15.00;101411.00;;;;5010503;28;20228;-69
2022/05/21 06:00:29;;;;;;;10.50;5.57;;;;;14.90;101414.00;;;;5002459;28;20233;-68
2022/05/21 06:03:15;;;;;;;7.37;4.67;;;;;14.90;101408.00;;;;4998322;28;20245;-69
2022/05/21 06:06:02;;;;;;;11.10;4.80;;;;;15.00;101414.00;;;;5005260;28;20602;-69
2022/05/21 06:08:50;;;;;;;8.97;5.47;;;;;15.00;101402.00;;;;5005008;28;20742;-69
2022/05/21 06:11:38;;;;;;;8.07;4.70;;;;;15.00;101414.00;;;;5004810;28;20305;-68
2022/05/21 06:14:25;;;;;;;8.63;4.77;;;;;15.10;101415.00;;;;4991430;28;20374;-69
2022/05/21 06:17:13;;;;;;;12.30;5.00;;;;;15.00;101417.00;;;;5015862;28;20364;-68
2022/05/21 06:20:00;;;;;;;10.10;4.70;;;;;14.90;101418.00;;;;5022143;28;20234;-70
2022/05/21 06:22:46;;;;;;;10.30;4.47;;;;;15.00;101410.00;;;;5010514;28;20305;-68
2022/05/21 06:25:34;;;;;;;8.77;4.90;;;;;14.90;101421.00;;;;5012343;28;20240;-70
2022/05/21 06:28:20;;;;;;;14.53;5.33;;;;;15.00;101419.00;;;;5012334;28;20273;-70
2022/05/21 06:31:07;;;;;;;10.07;4.93;;;;;15.00;101429.00;;;;5025011;28;20252;-69
2022/05/21 06:33:53;;;;;;;7.97;4.70;;;;;15.00;101425.00;;;;5028166;28;20595;-69
2022/05/21 06:36:39;;;;;;;9.30;4.53;;;;;15.10;101430.00;;;;5028226;28;20281;-68
2022/05/21 06:39:26;;;;;;;9.27;4.70;;;;;15.10;101430.00;;;;5023068;28;20222;-69
2022/05/21 06:42:14;;;;;;;7.93;5.00;;;;;15.10;101435.00;;;;5020766;28;20706;-70
2022/05/21 06:45:00;;;;;;;8.43;4.80;;;;;15.20;101428.00;;;;5027994;28;20372;-69
2022/05/21 06:47:46;;;;;;;9.33;5.07;;;;;15.20;101433.00;;;;5028469;28;20725;-66
2022/05/21 06:50:32;;;;;;;8.53;5.13;;;;;15.20;101427.00;;;;5028704;28;20235;-69
2022/05/21 06:53:19;;;;;;;11.47;4.67;;;;;15.10;101439.00;;;;5021711;28;20773;-69
2022/05/21 06:56:06;;;;;;;11.20;5.20;;;;;15.40;101438.00;;;;5019280;28;20236;-69
2022/05/21 06:58:54;;;;;;;10.70;4.47;;;;;15.30;101435.00;;;;5028444;28;20262;-69
2022/05/21 07:01:42;;;;;;;8.67;5.30;;;;;15.30;101443.00;;;;5028853;28;20714;-67
2022/05/21 07:07:44;;;;;;;11.07;5.03;;;;;15.40;101449.00;;;;5010729;28;20629;-68
2022/05/21 07:10:30;;;;;;;9.63;5.00;;;;;15.40;101438.00;;;;5018820;28;20238;-70
2022/05/21 07:13:17;;;;;;;9.30;5.50;;;;;15.50;101440.00;;;;5020654;28;20235;-70
2022/05/21 07:16:05;;;;;;;14.53;5.50;;;;;15.70;101444.00;;;;5026551;28;20286;-69
2022/05/21 07:18:51;;;;;;;7.63;4.47;;;;;15.70;101448.00;;;;5027749;28;20226;-70
2022/05/21 07:21:37;;;;;;;8.87;5.07;;;;;15.70;101454.00;;;;5028170;28;20727;-70
2022/05/21 07:24:26;;;;;;;10.10;5.13;;;;;15.80;101463.00;;;;5027731;28;20776;-71
2022/05/21 07:27:13;;;;;;;7.43;4.90;;;;;15.70;101467.00;;;;5032182;28;20225;-71
2022/05/21 07:29:59;;;;;;;10.80;5.37;;;;;15.90;101463.00;;;;5027535;28;20719;-71
2022/05/21 07:32:50;;;;;;;11.00;5.47;;;;;16.20;101456.00;;;;5027235;28;20370;-71
2022/05/21 07:35:37;;;;;;;8.07;4.70;;;;;16.00;101463.00;;;;5024874;28;20758;-71
2022/05/21 07:38:24;;;;;;;6.70;4.60;;;;;16.00;101455.00;;;;5021200;28;20240;-71
2022/05/21 07:41:10;;;;;;;8.30;5.00;;;;;16.00;101464.00;;;;5027610;28;20734;-71
2022/05/21 07:43:57;;;;;;;7.93;4.77;;;;;16.00;101468.00;;;;5027558;28;20238;-71
2022/05/21 07:46:43;;;;;;;7.83;5.07;;;;;16.10;101457.00;;;;5026987;28;20239;-71
2022/05/21 07:49:31;;;;;;;11.47;4.83;;;;;16.00;101463.00;;;;5017590;28;20626;-70
2022/05/21 07:52:17;;;;;;;10.57;5.50;;;;;15.90;101478.00;;;;5019894;28;20221;-70
2022/05/21 07:55:05;;;;;;;9.77;4.60;;;;;16.00;101473.00;;;;5026427;28;21065;-68
2022/05/21 07:57:51;;;;;;;11.57;5.10;;;;;16.00;101494.00;;;;5027035;28;20237;-70
2022/05/21 08:00:38;;;;;;;8.00;4.70;;;;;16.10;101483.00;;;;5027331;28;20727;-69
2022/05/21 08:03:25;;;;;;;9.37;4.97;;;;;16.00;101489.00;;;;5020324;28;20239;-69
2022/05/21 08:06:13;;;;;;;8.07;4.97;;;;;16.10;101483.00;;;;5026627;28;20243;-69
2022/05/21 08:08:59;;;;;;;9.40;4.90;;;;;16.30;101492.00;;;;5026864;28;20750;-70
2022/05/21 08:11:46;;;;;;;11.97;4.43;;;;;16.40;101475.00;;;;5023147;28;20231;-69
2022/05/21 08:14:32;;;;;;;14.13;4.73;;;;;16.40;101488.00;;;;5021008;28;20236;-69
2022/05/21 08:17:19;;;;;;;14.03;5.43;;;;;16.60;101490.00;;;;5015644;28;20246;-68
2022/05/21 08:20:07;;;;;;;7.77;4.70;;;;;16.40;101500.00;;;;5023003;28;20628;-70
2022/05/21 08:29:02;;;;;;;9.77;4.83;;;;;16.60;101501.00;;;;5024715;28;20244;-70
2022/05/21 08:31:48;;;;;;;10.40;4.83;;;;;16.70;101499.00;;;;5027214;28;20311;-71
2022/05/21 08:34:35;;;;;;;10.53;5.17;;;;;17.00;101500.00;;;;5020905;28;20231;-71
2022/05/21 08:37:21;;;;;;;10.40;4.80;;;;;17.30;101509.00;;;;5019298;28;20274;-71
2022/05/21 08:40:15;;;;;;;12.20;6.20;;;;;17.70;101511.00;;;;5017171;28;20366;-70
2022/05/21 08:43:04;;;;;;;7.90;4.57;;;;;17.80;101507.00;;;;5010241;28;20232;-68
2022/05/21 08:46:04;;;;;;;10.20;4.93;;;;;18.00;101498.00;;;;5015761;28;20855;-72
2022/05/21 08:48:57;;;;;;;10.60;5.40;;;;;18.10;101494.00;;;;5021674;28;20579;-69
2022/05/21 08:51:48;;;;;;;9.97;4.87;;;;;18.00;101515.00;;;;5026785;28;20237;-69
2022/05/21 08:54:40;;;;;;;9.23;5.07;;;;;18.10;101498.00;;;;5020318;28;20353;-71
2022/05/21 08:57:33;;;;;;;7.97;4.63;;;;;18.00;101493.00;;;;5019039;28;20225;-70
2022/05/21 09:00:23;;;;;;;12.60;5.00;;;;;18.20;101514.00;;;;5018439;28;20926;-70
2022/05/21 09:03:12;;;;;;;11.33;4.83;;;;;18.70;101503.00;;;;5025760;28;20592;-70
2022/05/21 09:06:09;;;;;;;8.37;3.87;;;;;18.90;101515.00;;;;5026048;28;20252;-72
2022/05/21 09:09:01;;;;;;;12.57;4.73;;;;;18.60;101511.00;;;;5026177;28;20229;-71
2022/05/21 09:11:50;;;;;;;9.47;4.57;;;;;18.30;101521.00;;;;5026313;28;20903;-72
2022/05/21 09:14:41;;;;;;;9.53;5.10;;;;;18.10;101528.00;;;;5020079;28;20330;-72
2022/05/21 09:17:27;;;;;;;8.17;4.00;;;;;17.60;101523.00;;;;5019296;28;20312;-72
2022/05/21 09:20:19;;;;;;;13.33;4.63;;;;;17.50;101525.00;;;;5025363;28;20249;-69
2022/05/21 09:23:05;;;;;;;9.60;4.53;;;;;17.80;101514.00;;;;5025522;28;20580;-69
2022/05/21 09:26:06;;;;;;;6.27;4.57;;;;;18.30;101516.00;;;;5025895;28;20325;-67
2022/05/21 09:29:10;;;;;;;8.63;4.60;;;;;18.50;101517.00;;;;5022406;28;20826;-67
2022/05/21 09:31:59;;;;;;;7.63;4.77;;;;;18.40;101514.00;;;;5017334;28;20757;-68
2022/05/21 09:34:45;;;;;;;5.53;4.20;;;;;18.50;101523.00;;;;5025198;28;20241;-68
2022/05/21 09:37:31;;;;;;;8.20;5.10;;;;;18.60;101514.00;;;;5019205;28;20320;-70
2022/05/21 09:40:35;;;;;;;9.17;4.43;;;;;18.60;101505.00;;;;5025933;28;20271;-69
2022/05/21 09:46:31;;;;;;;11.23;4.73;;;;;18.10;101511.00;;;;5011743;28;20404;-69
2022/05/21 09:49:26;;;;;;;7.83;3.70;;;;;18.20;101512.00;;;;5025456;28;20360;-69
2022/05/21 09:52:23;;;;;;;9.17;4.37;;;;;17.90;101506.00;;;;5018593;28;20639;-70
2022/05/21 09:55:21;;;;;;;9.87;4.50;;;;;18.10;101516.00;;;;5024832;28;20335;-69
2022/05/21 09:58:14;;;;;;;7.20;4.00;;;;;18.30;101529.00;;;;5025060;28;20239;-69
2022/05/21 10:01:01;;;;;;;6.73;3.83;;;;;18.40;101521.00;;;;5018717;28;20251;-69
2022/05/21 10:03:52;;;;;;;9.57;4.07;;;;;18.70;101524.00;;;;5015663;28;20345;-68
2022/05/21 10:06:45;;;;;;;9.57;3.97;;;;;18.60;101517.00;;;;5009271;28;20242;-68
2022/05/21 10:12:43;;;;;;;9.10;4.10;;;;;18.00;101512.00;;;;5018704;28;20245;-69
2022/05/21 10:15:39;;;;;;;9.53;3.90;;;;;17.90;101517.00;;;;5009951;28;20345;-69
2022/05/21 10:18:30;;;;;;;10.33;4.30;;;;;17.50;101524.00;;;;5020691;28;20234;-68
2022/05/21 10:21:23;;;;;;;9.77;4.07;;;;;17.50;101538.00;;;;5023915;28;20237;-68
2022/05/21 10:24:18;;;;;;;3.97;3.40;;;;;17.50;101540.00;;;;5010206;28;20734;-69
2022/05/21 10:27:13;;;;;;;5.53;4.30;;;;;17.80;101540.00;;;;5009760;28;20305;-70
2022/05/21 10:30:08;;;;;;;6.73;3.80;;;;;18.30;101538.00;;;;5009495;28;20238;-68
2022/05/21 10:33:08;;;;;;;5.63;3.53;;;;;18.80;101539.00;;;;5025012;28;20280;-66
2022/05/21 10:36:09;;;;;;;7.47;3.60;;;;;19.30;101545.00;;;;5005140;28;20324;-71
2022/05/21 10:39:16;;;;;;;11.80;4.20;;;;;19.50;101535.00;;;;4999835;28;20229;-71
2022/05/21 10:42:27;;;;;;;9.93;4.03;;;;;19.70;101522.00;;;;4996880;28;20229;-69
2022/05/21 10:45:19;;;;;;;7.47;3.90;;;;;19.70;101525.00;;;;5004367;28;20242;-69
2022/05/21 10:48:34;;;;;;;7.20;3.63;;;;;19.70;101534.00;;;;5016313;28;20361;-66
2022/05/21 10:51:30;;;;;;;7.97;3.80;;;;;19.70;101521.00;;;;5014511;28;20225;-68
2022/05/21 10:54:42;;;;;;;7.33;3.47;;;;;19.50;101524.00;;;;4998965;28;20238;-68
2022/05/21 10:57:39;;;;;;;9.33;3.67;;;;;19.30;101519.00;;;;5009309;28;20266;-67
2022/05/21 11:00:32;;;;;;;5.53;2.80;;;;;19.30;101530.00;;;;5005400;28;20230;-69
2022/05/21 11:04:06;;;;;;;5.20;3.10;;;;;19.50;101530.00;;;;5004713;28;20246;-69
2022/05/21 11:07:19;;;;;;;6.70;3.27;;;;;20.20;101536.00;;;;5019929;28;20622;-71
2022/05/21 11:10:16;;;;;;;7.90;4.57;;;;;20.20;101536.00;;;;5011885;28;20739;-68
2022/05/21 11:13:09;;;;;;;8.80;4.27;;;;;20.00;101542.00;;;;4992716;28;20234;-68
2022/05/21 11:15:59;;;;;;;9.57;3.67;;;;;20.00;101538.00;;;;4998539;28;20241;-69
2022/05/21 11:18:51;;;;;;;9.50;3.97;;;;;19.90;101526.00;;;;5023571;28;20232;-68
2022/05/21 11:21:42;;;;;;;6.30;2.90;;;;;19.80;101535.00;;;;5021339;28;20229;-70
2022/05/21 11:24:34;;;;;;;6.23;3.13;;;;;19.70;101535.00;;;;5011945;28;20226;-70
2022/05/21 11:27:27;;;;;;;5.67;2.87;;;;;19.80;101509.00;;;;5027627;28;20245;-69
2022/05/21 11:30:17;;;;;;;5.43;3.23;;;;;19.90;101535.00;;;;5027799;28;20600;-69
2022/05/21 11:39:21;;;;;;;5.83;3.63;;;;;20.80;101535.00;;;;5007372;28;20233;-69
2022/05/21 11:42:14;;;;;;;9.20;3.70;;;;;21.20;101542.00;;;;5007664;28;20234;-70
2022/05/21 11:45:20;;;;;;;9.83;4.43;;;;;21.40;101547.00;;;;5007632;28;20618;-67
2022/05/21 11:48:15;;;;;;;7.37;3.77;;;;;21.40;101544.00;;;;5014123;28;20230;-70
2022/05/21 11:51:26;;;;;;;7.10;3.97;;;;;21.70;101537.00;;;;5008076;28;20230;-70
2022/05/21 11:55:09;;;;;;;7.93;3.73;;;;;21.90;101542.00;;;;5013222;28;20297;-69
2022/05/21 11:57:57;;;;;;;7.63;3.90;;;;;21.90;101546.00;;;;5000968;28;20225;-71
2022/05/21 12:00:49;;;;;;;6.07;3.83;;;;;21.80;101556.00;;;;5015254;28;20263;-70
2022/05/21 12:03:53;;;;;;;7.40;3.40;;;;;21.40;101556.00;;;;5020752;28;20722;-70
2022/05/21 12:06:41;;;;;;;9.83;3.00;;;;;21.10;101557.00;;;;5022724;28;20284;-70
2022/05/21 12:09:31;;;;;;;10.43;3.60;;;;;20.90;101555.00;;;;5006793;28;20239;-70
2022/05/21 12:12:22;;;;;;;6.77;3.37;;;;;20.70;101555.00;;;;5012202;28;20243;-71
2022/05/21 12:15:18;;;;;;;4.70;3.03;;;;;20.70;101548.00;;;;5007151;28;20246;-71
2022/05/21 12:18:27;;;;;;;4.87;2.90;;;;;21.20;101552.00;;;;5026513;28;20612;-70
2022/05/21 12:22:00;;;;;;;7.23;3.30;;;;;21.70;101547.00;;;;5003966;28;20240;-69
2022/05/21 12:24:47;;;;;;;6.47;3.10;;;;;22.00;101545.00;;;;4944677;28;20239;-68
2022/05/21 12:27:33;;;;;;;6.17;3.10;;;;;22.40;101552.00;;;;4957935;28;20763;-68
2022/05/21 12:30:29;;;;;;;8.67;3.57;;;;;22.90;101544.00;;;;5011045;28;20818;-65
2022/05/21 12:33:28;;;;;;;8.00;3.40;;;;;23.10;101550.00;;;;5026126;28;20858;-69
2022/05/21 12:36:29;;;;;;;5.53;3.17;;;;;22.90;101541.00;;;;5026462;28;20246;-68
2022/05/21 12:39:17;;;;;;;5.50;3.10;;;;;22.40;101534.00;;;;5026567;28;20240;-69
2022/05/21 12:42:11;;;;;;;6.60;3.10;;;;;21.90;101540.00;;;;5026781;28;20235;-67
2022/05/21 12:44:58;;;;;;;4.73;3.27;;;;;21.80;101541.00;;;;5026421;28;20723;-66
2022/05/21 12:47:45;;;;;;;7.17;3.20;;;;;21.60;101548.00;;;;5020323;28;20295;-68
2022/05/21 12:50:32;;;;;;;7.00;2.90;;;;;21.60;101539.00;;;;5026585;28;20312;-67
2022/05/21 12:53:24;;;;;;;4.60;2.40;;;;;21.60;101547.00;;;;5026024;28;22780;-67
2022/05/21 12:56:19;;;;;;;5.53;2.53;;;;;22.10;101522.00;;;;5026037;28;20317;-67
2022/05/21 12:59:10;;;;;;;6.47;2.43;;;;;21.80;101541.00;;;;5026354;28;20600;-67
2022/05/21 13:02:11;;;;;;;5.13;2.60;;;;;22.30;101531.00;;;;5026383;28;20281;-67
2022/05/21 13:05:00;;;;;;;5.83;2.57;;;;;22.80;101533.00;;;;5025950;28;20235;-68
2022/05/21 13:07:49;;;;;;;5.90;2.60;;;;;22.90;101545.00;;;;5019914;28;20317;-67
2022/05/21 13:10:37;;;;;;;6.37;2.43;;;;;23.20;101546.00;;;;5011607;28;20237;-69
2022/05/21 13:13:25;;;;;;;6.23;2.50;;;;;23.50;101549.00;;;;5005839;28;20242;-69
2022/05/21 13:16:16;;;;;;;7.80;2.77;;;;;23.70;101547.00;;;;5008022;28;20281;-68
2022/05/21 13:19:35;;;;;;;3.67;2.83;;;;;23.70;101539.00;;;;5012990;28;20273;-72
2022/05/21 13:22:31;;;;;;;8.67;3.50;;;;;23.70;101548.00;;;;5011846;28;20233;-69
2022/05/21 13:25:19;;;;;;;8.77;3.40;;;;;24.10;101563.00;;;;5020639;28;20245;-71
2022/05/21 13:28:15;;;;;;;7.30;3.27;;;;;24.00;101559.00;;;;5013286;28;20260;-69
2022/05/21 13:31:01;;;;;;;3.97;2.97;;;;;23.70;101555.00;;;;5017917;28;20730;-69
2022/05/21 13:33:50;;;;;;;6.90;2.70;;;;;23.10;101556.00;;;;5015136;28;20264;-70
2022/05/21 13:36:38;;;;;;;6.07;2.57;;;;;22.60;101561.00;;;;5021519;28;20834;-71
2022/05/21 13:39:27;;;;;;;7.90;2.70;;;;;22.40;101556.00;;;;5013864;28;20231;-70
2022/05/21 13:42:19;;;;;;;6.53;2.77;;;;;22.10;101551.00;;;;5019924;28;20783;-70
2022/05/21 13:45:11;;;;;;;6.83;2.80;;;;;21.90;101541.00;;;;5015193;28;20237;-69
2022/05/21 13:48:01;;;;;;;6.47;2.80;;;;;22.10;101543.00;;;;5012933;28;20238;-71
2022/05/21 13:50:49;;;;;;;4.57;2.90;;;;;22.10;101544.00;;;;5001176;28;20220;-71
2022/05/21 13:53:40;;;;;;;7.10;3.00;;;;;21.90;101543.00;;;;4998588;28;20233;-70
2022/05/21 13:56:37;;;;;;;5.37;3.03;;;;;21.40;101547.00;;;;5009107;28;20248;-70
2022/05/21 13:59:26;;;;;;;5.30;2.50;;;;;21.20;101542.00;;;;5023776;28;20697;-70
2022/05/21 14:02:21;;;;;;;5.93;3.10;;;;;21.00;101543.00;;;;5025510;28;20233;-69
2022/05/21 14:05:23;;;;;;;6.20;2.70;;;;;20.80;101550.00;;;;5024210;28;20269;-69
2022/05/21 14:08:13;;;;;;;6.73;2.80;;;;;20.90;101552.00;;;;5021705;28;20237;-67
2022/05/21 14:11:05;;;;;;;9.30;3.00;;;;;20.60;101551.00;;;;5010421;28;20916;-69
2022/05/21 14:13:58;;;;;;;7.53;3.53;;;;;20.70;101553.00;;;;5023950;28;20233;-67
2022/05/21 14:16:47;;;;;;;5.40;2.97;;;;;20.90;101552.00;;;;5025204;28;20239;-69
2022/05/21 14:19:34;;;;;;;4.77;2.93;;;;;20.70;101547.00;;;;5024973;28;20249;-71
2022/05/21 14:22:23;;;;;;;5.13;2.40;;;;;20.70;101547.00;;;;5018613;28;20242;-67
2022/05/21 14:25:23;;;;;;;10.97;2.93;;;;;20.70;101544.00;;;;5024926;28;20233;-69
2022/05/21 14:28:23;;;;;;;8.20;2.60;;;;;21.20;101545.00;;;;5021984;28;20320;-69
2022/05/21 14:31:35;;;;;;;5.20;2.53;;;;;23.00;101539.00;;;;5022205;28;20332;-70
2022/05/21 14:34:23;;;;;;;7.53;2.83;;;;;24.40;101517.00;;;;5022795;28;20263;-70